createdAt,value
2023-05-03T00:00:20.989Z,4.50
2023-05-03T00:02:47.906Z,4.10
2023-05-03T00:05:15.821Z,4.50
2023-05-03T00:07:43.911Z,4.50
2023-05-03T00:10:16.356Z,4.45
2023-05-03T00:12:44.364Z,4.50
2023-05-03T00:15:11.644Z,4.57
2023-05-03T00:17:38.508Z,4.65
2023-05-03T00:20:06.291Z,4.40
2023-05-03T00:22:33.206Z,4.45
2023-05-03T00:25:00.799Z,5.05
2023-05-03T00:27:27.576Z,5.30
2023-05-03T00:29:54.277Z,4.75
2023-05-03T00:32:22.929Z,4.65
2023-05-03T00:34:58.960Z,4.40
2023-05-03T00:37:26.318Z,4.93
2023-05-03T00:39:53.680Z,5.13
2023-05-03T00:42:20.490Z,5.03
2023-05-03T00:44:47.348Z,5.15
2023-05-03T00:47:15.709Z,5.13
2023-05-03T00:49:43.174Z,5.90
2023-05-03T00:52:11.054Z,4.78
2023-05-03T00:54:38.158Z,5.60
2023-05-03T00:57:05.271Z,5.07
2023-05-03T00:59:33.067Z,5.05
2023-05-03T01:02:00.287Z,5.38
2023-05-03T01:04:27.698Z,5.10
2023-05-03T01:07:02.702Z,5.60
2023-05-03T01:09:29.419Z,5.30
2023-05-03T01:12:12.097Z,5.43
2023-05-03T01:15:15.479Z,5.50
2023-05-03T01:17:50.983Z,5.32
2023-05-03T01:20:24.874Z,6.00
2023-05-03T01:23:05.270Z,5.50
2023-05-03T01:25:32.654Z,6.07
2023-05-03T01:27:59.858Z,6.00
2023-05-03T01:30:28.609Z,6.28
2023-05-03T01:33:09.989Z,6.90
2023-05-03T01:35:44.150Z,5.90
2023-05-03T01:38:12.263Z,5.88
2023-05-03T01:40:54.817Z,6.75
2023-05-03T01:43:22.622Z,6.05
2023-05-03T01:45:49.836Z,6.85
2023-05-03T01:48:18.201Z,6.50
2023-05-03T01:50:45.580Z,6.40
2023-05-03T01:53:12.436Z,6.70
2023-05-03T01:55:39.125Z,6.65
2023-05-03T01:58:06.229Z,6.60
2023-05-03T02:00:33.428Z,6.80
2023-05-03T02:03:00.404Z,6.20
2023-05-03T02:05:27.218Z,6.78
2023-05-03T02:07:53.901Z,6.35
2023-05-03T02:10:20.658Z,7.13
2023-05-03T02:12:47.452Z,6.60
2023-05-03T02:15:14.228Z,6.45
2023-05-03T02:17:42.936Z,6.05
2023-05-03T02:20:09.899Z,6.43
2023-05-03T02:22:37.065Z,6.07
2023-05-03T02:25:04.126Z,6.13
2023-05-03T02:27:31.087Z,6.00
2023-05-03T02:29:57.899Z,6.22
2023-05-03T02:32:25.630Z,6.10
2023-05-03T02:34:52.408Z,6.28
2023-05-03T02:37:19.156Z,6.30
2023-05-03T02:39:45.945Z,6.22
2023-05-03T02:42:12.745Z,5.68
2023-05-03T02:44:39.607Z,5.93
2023-05-03T02:47:06.323Z,5.80
2023-05-03T02:49:33.105Z,6.22
2023-05-03T02:51:59.846Z,5.60
2023-05-03T02:54:26.762Z,5.72
2023-05-03T02:56:53.458Z,5.60
2023-05-03T02:59:20.145Z,5.72
2023-05-03T03:01:47.288Z,5.40
2023-05-03T03:04:14.229Z,5.32
2023-05-03T03:06:41.128Z,5.32
2023-05-03T03:09:07.895Z,5.25
2023-05-03T03:11:34.867Z,5.10
2023-05-03T03:14:01.759Z,4.95
2023-05-03T03:16:28.532Z,5.10
2023-05-03T03:18:55.286Z,5.35
2023-05-03T03:21:22.000Z,5.13
2023-05-03T03:23:48.704Z,5.03
2023-05-03T03:26:15.469Z,4.65
2023-05-03T03:28:42.166Z,5.00
2023-05-03T03:31:09.090Z,5.13
2023-05-03T03:33:35.902Z,4.93
2023-05-03T03:36:02.625Z,5.57
2023-05-03T03:38:29.369Z,4.75
2023-05-03T03:40:56.216Z,5.07
2023-05-03T03:43:22.948Z,4.72
2023-05-03T03:45:49.772Z,5.55
2023-05-03T03:48:16.627Z,5.07
2023-05-03T03:50:43.547Z,5.28
2023-05-03T03:53:11.235Z,5.05
2023-05-03T03:55:38.655Z,5.15
2023-05-03T03:58:06.189Z,4.60
2023-05-03T04:00:34.436Z,4.70
2023-05-03T04:03:01.321Z,4.35
2023-05-03T04:05:28.147Z,5.25
2023-05-03T04:07:54.964Z,5.03
2023-05-03T04:10:21.712Z,4.95
2023-05-03T04:12:48.425Z,4.45
2023-05-03T04:15:15.232Z,4.82
2023-05-03T04:17:43.177Z,4.90
2023-05-03T04:20:13.837Z,4.35
2023-05-03T04:22:41.102Z,4.68
2023-05-03T04:25:13.220Z,4.90
2023-05-03T04:27:41.065Z,4.38
2023-05-03T04:30:08.402Z,4.25
2023-05-03T04:32:37.279Z,4.68
2023-05-03T04:35:09.626Z,4.43
2023-05-03T04:37:41.835Z,4.53
2023-05-03T04:40:09.838Z,4.55
2023-05-03T04:42:36.982Z,4.70
2023-05-03T04:45:06.716Z,4.70
2023-05-03T04:47:34.098Z,4.53
2023-05-03T04:50:02.244Z,4.80
2023-05-03T04:52:29.325Z,4.25
2023-05-03T04:54:56.159Z,4.57
2023-05-03T04:57:22.900Z,4.15
2023-05-03T04:59:50.202Z,4.25
2023-05-03T05:02:16.961Z,4.40
2023-05-03T05:04:43.642Z,4.13
2023-05-03T05:07:10.554Z,3.90
2023-05-03T05:09:37.321Z,4.55
2023-05-03T05:12:04.668Z,4.20
2023-05-03T05:14:32.165Z,4.50
2023-05-03T05:16:59.311Z,4.43
2023-05-03T05:19:26.102Z,4.90
2023-05-03T05:21:52.918Z,4.93
2023-05-03T05:24:19.905Z,4.35
2023-05-03T05:26:46.832Z,4.28
2023-05-03T05:29:13.512Z,4.30
2023-05-03T05:31:40.289Z,4.57
2023-05-03T05:34:07.139Z,4.25
2023-05-03T05:36:33.967Z,4.40
2023-05-03T05:39:00.770Z,4.45
2023-05-03T05:41:27.546Z,4.22
2023-05-03T05:43:54.465Z,4.15
2023-05-03T05:46:21.512Z,4.40
2023-05-03T05:48:48.398Z,4.10
2023-05-03T05:51:15.167Z,4.25
2023-05-03T05:53:41.931Z,3.90
2023-05-03T05:56:08.967Z,4.05
2023-05-03T05:58:37.421Z,3.92
2023-05-03T06:01:05.390Z,4.00
2023-05-03T06:03:33.443Z,4.30
2023-05-03T06:06:00.927Z,4.03
2023-05-03T06:08:27.903Z,4.18
2023-05-03T06:10:54.778Z,3.83
2023-05-03T06:13:22.501Z,3.80
2023-05-03T06:15:49.301Z,3.38
2023-05-03T06:18:16.409Z,4.05
2023-05-03T06:20:43.334Z,3.50
2023-05-03T06:23:10.447Z,3.90
2023-05-03T06:25:37.421Z,3.97
2023-05-03T06:28:04.651Z,3.22
2023-05-03T06:30:31.633Z,3.20
2023-05-03T06:32:58.438Z,3.25
2023-05-03T06:35:25.234Z,3.03
2023-05-03T06:37:52.062Z,2.83
2023-05-03T06:40:18.868Z,3.00
2023-05-03T06:42:45.769Z,3.05
2023-05-03T06:45:12.580Z,2.65
2023-05-03T06:47:42.642Z,2.90
2023-05-03T06:50:10.561Z,2.67
2023-05-03T06:52:37.596Z,2.60
2023-05-03T06:55:05.158Z,2.60
2023-05-03T06:57:32.142Z,2.58
2023-05-03T06:59:59.374Z,2.47
2023-05-03T07:02:26.962Z,2.13
2023-05-03T07:04:54.003Z,2.50
2023-05-03T07:07:21.242Z,2.17
2023-05-03T07:09:48.214Z,1.95
2023-05-03T07:12:14.933Z,2.08
2023-05-03T07:14:41.920Z,1.60
2023-05-03T07:17:09.609Z,1.90
2023-05-03T07:19:37.386Z,1.70
2023-05-03T07:22:04.358Z,1.70
2023-05-03T07:24:31.116Z,1.92
2023-05-03T07:26:58.378Z,2.10
2023-05-03T07:29:26.211Z,2.00
2023-05-03T07:31:53.708Z,1.95
2023-05-03T07:34:21.153Z,1.63
2023-05-03T07:36:47.928Z,2.00
2023-05-03T07:39:14.671Z,2.05
2023-05-03T07:41:41.592Z,1.60
2023-05-03T07:44:08.456Z,2.38
2023-05-03T07:46:35.596Z,2.00
2023-05-03T07:49:04.121Z,2.23
2023-05-03T07:51:35.003Z,1.90
2023-05-03T07:54:01.748Z,2.07
2023-05-03T07:56:28.839Z,1.77
2023-05-03T07:59:07.622Z,2.30
2023-05-03T08:01:36.582Z,1.98
2023-05-03T08:04:03.455Z,2.05
2023-05-03T08:06:31.775Z,1.92
2023-05-03T08:08:58.816Z,2.47
2023-05-03T08:11:27.341Z,1.75
2023-05-03T08:13:54.043Z,2.22
2023-05-03T08:16:21.390Z,2.45
2023-05-03T08:18:48.237Z,2.10
2023-05-03T08:21:16.807Z,2.20
2023-05-03T08:23:43.544Z,1.80
2023-05-03T08:26:10.913Z,2.00
2023-05-03T08:28:37.983Z,1.67
2023-05-03T08:31:05.067Z,1.90
2023-05-03T08:33:32.104Z,2.28
2023-05-03T08:35:58.939Z,2.50
2023-05-03T08:38:25.939Z,2.20
2023-05-03T08:40:55.448Z,1.98
2023-05-03T08:43:26.373Z,2.20
2023-05-03T08:45:53.076Z,2.60
2023-05-03T08:48:19.885Z,2.13
2023-05-03T08:50:46.632Z,2.25
2023-05-03T08:53:13.406Z,2.20
2023-05-03T08:55:40.638Z,2.15
2023-05-03T08:58:12.704Z,2.28
2023-05-03T09:00:41.583Z,2.50
2023-05-03T09:03:08.646Z,2.40
2023-05-03T09:05:36.580Z,2.55
2023-05-03T09:08:07.554Z,2.40
2023-05-03T09:10:38.112Z,2.50
2023-05-03T09:13:05.011Z,2.42
2023-05-03T09:15:31.955Z,2.60
2023-05-03T09:18:16.113Z,2.90
2023-05-03T09:20:51.397Z,3.10
2023-05-03T09:23:39.548Z,3.10
2023-05-03T09:26:07.445Z,2.80
2023-05-03T09:28:44.114Z,2.80
2023-05-03T09:31:12.167Z,3.00
2023-05-03T09:33:40.408Z,3.22
2023-05-03T09:36:08.380Z,2.90
2023-05-03T09:38:38.979Z,2.78
2023-05-03T09:41:06.333Z,2.85
2023-05-03T09:43:34.905Z,3.10
2023-05-03T09:46:14.400Z,2.85
2023-05-03T09:48:42.169Z,2.95
2023-05-03T09:51:11.328Z,3.10
2023-05-03T09:53:39.427Z,3.30
2023-05-03T09:56:10.058Z,2.80
2023-05-03T09:58:37.113Z,3.13
2023-05-03T10:01:04.045Z,3.00
2023-05-03T10:03:45.332Z,3.53
2023-05-03T10:06:22.798Z,3.08
2023-05-03T10:08:57.507Z,3.50
2023-05-03T10:11:27.368Z,3.45
2023-05-03T10:13:55.816Z,3.63
2023-05-03T10:16:35.807Z,3.63
2023-05-03T10:19:24.089Z,3.60
2023-05-03T10:22:05.951Z,3.28
2023-05-03T10:24:33.708Z,3.08
2023-05-03T10:27:00.875Z,4.05
2023-05-03T10:29:37.428Z,4.00
2023-05-03T10:32:05.640Z,3.42
2023-05-03T10:34:34.052Z,3.65
2023-05-03T10:37:10.593Z,3.72
2023-05-03T10:39:37.695Z,3.58
2023-05-03T10:42:09.402Z,4.10
2023-05-03T10:44:49.809Z,3.83
2023-05-03T10:47:18.542Z,3.78
2023-05-03T10:49:46.226Z,3.80
2023-05-03T10:52:51.624Z,3.88
2023-05-03T10:55:21.048Z,4.00
2023-05-03T10:57:49.340Z,3.80
2023-05-03T11:00:44.065Z,4.10
2023-05-03T11:03:28.654Z,4.20
2023-05-03T11:05:55.993Z,4.38
2023-05-03T11:08:25.901Z,4.28
2023-05-03T11:11:00.764Z,4.32
2023-05-03T11:13:27.804Z,4.32
2023-05-03T11:15:57.318Z,4.50
2023-05-03T11:18:27.508Z,4.57
2023-05-03T11:20:54.400Z,3.70
2023-05-03T11:23:31.155Z,4.38
2023-05-03T11:25:58.190Z,4.55
2023-05-03T11:28:26.055Z,4.40
2023-05-03T11:30:53.220Z,4.40
2023-05-03T11:33:20.426Z,4.40
2023-05-03T11:35:47.359Z,4.50
2023-05-03T11:38:14.182Z,4.78
2023-05-03T11:40:41.550Z,4.53
2023-05-03T11:43:08.381Z,4.50
2023-05-03T11:45:44.110Z,4.78
2023-05-03T11:48:12.979Z,4.70
2023-05-03T11:50:55.994Z,4.80
2023-05-03T11:53:27.060Z,5.15
2023-05-03T11:55:54.761Z,5.18
2023-05-03T11:58:26.704Z,5.00
2023-05-03T12:00:56.415Z,4.57
2023-05-03T12:03:36.998Z,4.93
2023-05-03T12:06:04.898Z,4.55
2023-05-03T12:08:35.893Z,4.25
2023-05-03T12:13:38.691Z,5.00
2023-05-03T12:16:13.769Z,4.82
2023-05-03T12:18:50.290Z,5.30
2023-05-03T12:23:50.451Z,4.45
2023-05-03T12:26:19.984Z,5.30
2023-05-03T12:28:49.603Z,5.28
2023-05-03T12:31:18.295Z,5.15
2023-05-03T12:34:02.626Z,5.03
2023-05-03T12:36:36.901Z,4.97
2023-05-03T12:39:08.689Z,5.00
2023-05-03T12:44:09.812Z,5.05
2023-05-03T12:46:39.130Z,5.25
2023-05-03T12:49:08.295Z,4.97
2023-05-03T12:51:36.257Z,5.00
2023-05-03T12:54:10.029Z,5.30
2023-05-03T12:56:40.196Z,5.13
2023-05-03T12:59:39.494Z,5.03
2023-05-03T13:04:55.845Z,5.00
2023-05-03T13:07:14.950Z,4.93
2023-05-03T13:12:20.495Z,4.88
2023-05-03T13:14:51.595Z,5.18
2023-05-03T13:17:23.183Z,4.78
2023-05-03T13:19:51.375Z,5.10
2023-05-03T13:22:18.619Z,5.20
2023-05-03T13:24:47.344Z,5.13
2023-05-03T13:27:14.728Z,4.53
2023-05-03T13:29:41.918Z,4.72
2023-05-03T13:32:09.368Z,4.65
2023-05-03T13:34:36.859Z,5.10
2023-05-03T13:37:04.566Z,5.05
2023-05-03T13:39:31.832Z,4.90
2023-05-03T13:41:58.649Z,4.53
2023-05-03T13:44:26.119Z,5.38
2023-05-03T13:46:53.605Z,4.50
2023-05-03T13:49:20.727Z,4.47
2023-05-03T13:51:48.330Z,5.30
2023-05-03T13:54:15.196Z,5.10
2023-05-03T13:56:43.075Z,4.70
2023-05-03T13:59:13.714Z,5.30
2023-05-03T14:01:41.175Z,4.75
2023-05-03T14:04:08.242Z,5.30
2023-05-03T14:06:35.188Z,5.47
2023-05-03T14:09:02.839Z,5.15
2023-05-03T14:11:31.172Z,5.20
2023-05-03T14:13:58.851Z,5.43
2023-05-03T14:18:56.966Z,5.30
2023-05-03T14:21:23.892Z,4.97
2023-05-03T14:23:51.130Z,4.63
2023-05-03T14:26:20.416Z,4.82
2023-05-03T14:28:47.330Z,5.18
2023-05-03T14:31:14.408Z,5.00
2023-05-03T14:33:41.258Z,5.10
2023-05-03T14:36:08.877Z,5.50
2023-05-03T14:38:37.181Z,5.25
2023-05-03T14:41:04.166Z,5.47
2023-05-03T14:43:31.515Z,5.45
2023-05-03T14:45:58.404Z,4.97
2023-05-03T14:48:25.273Z,5.30
2023-05-03T14:50:52.785Z,5.05
2023-05-03T14:53:19.913Z,5.32
2023-05-03T14:55:46.731Z,5.47
2023-05-03T14:58:13.696Z,5.75
2023-05-03T15:00:41.464Z,5.70
2023-05-03T15:03:12.137Z,5.25
2023-05-03T15:05:47.472Z,5.35
2023-05-03T15:08:15.921Z,5.00
2023-05-03T15:10:44.485Z,5.38
2023-05-03T15:13:12.420Z,5.45
2023-05-03T15:15:40.155Z,5.53
2023-05-03T15:18:09.534Z,5.28
2023-05-03T15:20:36.458Z,5.00
2023-05-03T15:23:06.561Z,4.60
2023-05-03T15:25:33.419Z,5.18
2023-05-03T15:28:03.783Z,4.78
2023-05-03T15:30:32.238Z,5.13
2023-05-03T15:32:59.328Z,4.97
2023-05-03T15:35:26.445Z,4.70
2023-05-03T15:37:53.296Z,4.75
2023-05-03T15:40:22.370Z,5.30
2023-05-03T15:42:51.794Z,5.33
2023-05-03T15:45:19.010Z,4.75
2023-05-03T15:47:46.241Z,4.53
2023-05-03T15:50:13.474Z,5.47
2023-05-03T15:52:40.591Z,5.10
2023-05-03T15:55:09.544Z,4.55
2023-05-03T15:57:37.201Z,4.68
2023-05-03T16:00:15.944Z,4.75
2023-05-03T16:02:43.024Z,4.90
2023-05-03T16:05:11.188Z,4.63
2023-05-03T16:07:38.076Z,5.20
2023-05-03T16:10:05.680Z,5.03
2023-05-03T16:12:32.744Z,4.90
2023-05-03T16:14:59.542Z,5.07
2023-05-03T16:17:26.333Z,4.70
2023-05-03T16:19:53.147Z,4.80
2023-05-03T16:22:20.003Z,5.32
2023-05-03T16:24:47.283Z,5.00
2023-05-03T16:27:14.490Z,5.18
2023-05-03T16:29:41.250Z,5.03
2023-05-03T16:32:09.724Z,4.95
2023-05-03T16:34:38.102Z,5.05
2023-05-03T16:37:05.530Z,5.07
2023-05-03T16:39:33.165Z,5.03
2023-05-03T16:42:00.008Z,5.10
2023-05-03T16:44:26.898Z,5.28
2023-05-03T16:46:53.815Z,5.32
2023-05-03T16:49:20.752Z,4.93
2023-05-03T16:51:47.652Z,5.65
2023-05-03T16:54:16.740Z,5.40
2023-05-03T16:56:44.172Z,4.95
2023-05-03T16:59:11.021Z,5.38
2023-05-03T17:01:37.950Z,4.80
2023-05-03T17:04:06.318Z,4.80
2023-05-03T17:06:33.466Z,5.32
2023-05-03T17:09:00.713Z,4.75
2023-05-03T17:11:27.577Z,5.10
2023-05-03T17:13:54.380Z,5.18
2023-05-03T17:16:22.847Z,4.45
2023-05-03T17:18:50.129Z,4.90
2023-05-03T17:21:16.952Z,5.35
2023-05-03T17:23:43.899Z,4.90
2023-05-03T17:26:12.284Z,4.72
2023-05-03T17:28:40.069Z,5.10
2023-05-03T17:31:07.515Z,5.47
2023-05-03T17:33:35.082Z,5.40
2023-05-03T17:36:04.926Z,5.03
2023-05-03T17:38:33.834Z,5.00
2023-05-03T17:41:07.974Z,5.30
2023-05-03T17:43:35.820Z,5.32
2023-05-03T17:46:08.924Z,5.20
2023-05-03T17:48:40.033Z,5.45
2023-05-03T17:51:09.577Z,5.55
2023-05-03T17:53:36.331Z,4.97
2023-05-03T17:56:03.220Z,5.47
2023-05-03T17:58:30.560Z,5.70
2023-05-03T18:00:57.569Z,5.82
2023-05-03T18:03:25.775Z,5.80
2023-05-03T18:05:53.072Z,5.47
2023-05-03T18:08:19.854Z,5.55
2023-05-03T18:10:47.021Z,5.82
2023-05-03T18:13:13.943Z,5.80
2023-05-03T18:15:41.809Z,5.75
2023-05-03T18:18:09.485Z,5.88
2023-05-03T18:20:36.474Z,6.07
2023-05-03T18:23:03.850Z,5.40
2023-05-03T18:25:31.103Z,5.70
2023-05-03T18:27:58.330Z,6.43
2023-05-03T18:30:28.026Z,6.35
2023-05-03T18:32:55.913Z,6.22
2023-05-03T18:35:23.040Z,5.40
2023-05-03T18:37:49.998Z,5.80
2023-05-03T18:40:17.138Z,6.00
2023-05-03T18:42:43.996Z,5.72
2023-05-03T18:45:11.706Z,6.07
2023-05-03T18:47:38.639Z,6.03
2023-05-03T18:50:06.264Z,5.97
2023-05-03T18:52:33.276Z,6.18
2023-05-03T18:55:00.204Z,6.50
2023-05-03T18:57:27.340Z,6.60
2023-05-03T19:00:07.892Z,6.00
2023-05-03T19:02:35.693Z,6.40
2023-05-03T19:05:02.711Z,6.47
2023-05-03T19:07:29.542Z,6.72
2023-05-03T19:09:57.346Z,6.90
2023-05-03T19:12:24.399Z,6.30
2023-05-03T19:14:51.199Z,6.20
2023-05-03T19:17:18.074Z,6.85
2023-05-03T19:19:45.099Z,5.95
2023-05-03T19:22:11.871Z,6.72
2023-05-03T19:24:39.878Z,6.65
2023-05-03T19:27:06.689Z,5.97
2023-05-03T19:29:33.881Z,6.82
2023-05-03T19:32:00.843Z,7.07
2023-05-03T19:34:28.159Z,6.78
2023-05-03T19:36:55.220Z,6.70
2023-05-03T19:39:22.156Z,6.95
2023-05-03T19:41:50.309Z,6.75
2023-05-03T19:44:18.027Z,7.28
2023-05-03T19:46:45.104Z,6.38
2023-05-03T19:49:12.041Z,6.90
2023-05-03T19:51:38.820Z,6.78
2023-05-03T19:54:05.656Z,6.43
2023-05-03T19:56:32.534Z,6.78
2023-05-03T19:58:59.323Z,7.00
2023-05-03T20:01:26.228Z,7.03
2023-05-03T20:03:54.973Z,7.25
2023-05-03T20:06:22.288Z,6.65
2023-05-03T20:08:51.060Z,6.97
2023-05-03T20:11:19.709Z,6.63
2023-05-03T20:13:46.839Z,6.50
2023-05-03T20:16:13.851Z,6.72
2023-05-03T20:18:41.359Z,6.63
2023-05-03T20:21:08.286Z,6.45
2023-05-03T20:23:35.028Z,6.35
2023-05-03T20:26:01.927Z,6.47
2023-05-03T20:28:29.004Z,6.40
2023-05-03T20:30:55.801Z,6.35
2023-05-03T20:33:22.679Z,6.35
2023-05-03T20:35:49.522Z,6.85
2023-05-03T20:38:16.329Z,6.70
2023-05-03T20:40:43.068Z,7.57
2023-05-03T20:43:10.984Z,7.22
2023-05-03T20:45:38.021Z,6.78
2023-05-03T20:48:05.572Z,7.45
2023-05-03T20:50:32.389Z,7.68
2023-05-03T20:52:59.724Z,7.30
2023-05-03T20:55:26.557Z,7.35
2023-05-03T20:57:53.314Z,7.05
2023-05-03T21:00:22.177Z,7.43
2023-05-03T21:02:54.498Z,7.03
2023-05-03T21:05:21.891Z,7.50
2023-05-03T21:07:49.214Z,7.60
2023-05-03T21:10:16.471Z,7.95
2023-05-03T21:12:43.357Z,7.95
2023-05-03T21:15:10.800Z,7.57
2023-05-03T21:17:37.874Z,7.80
2023-05-03T21:20:05.810Z,7.60
2023-05-03T21:22:32.878Z,7.82
2023-05-03T21:24:59.687Z,7.15
2023-05-03T21:27:26.509Z,7.93
2023-05-03T21:29:53.428Z,8.20
2023-05-03T21:32:20.208Z,7.85
2023-05-03T21:34:47.059Z,8.50
2023-05-03T21:37:13.836Z,8.52
2023-05-03T21:39:40.866Z,8.68
2023-05-03T21:42:07.736Z,8.35
2023-05-03T21:44:34.477Z,8.25
2023-05-03T21:47:01.963Z,8.07
2023-05-03T21:49:28.878Z,8.13
2023-05-03T21:51:55.702Z,8.25
2023-05-03T21:54:22.610Z,8.30
2023-05-03T21:56:49.379Z,7.97
2023-05-03T21:59:16.262Z,7.55
2023-05-03T22:01:43.176Z,7.60
2023-05-03T22:04:10.147Z,7.55
2023-05-03T22:06:37.882Z,7.22
2023-05-03T22:09:04.685Z,7.53
2023-05-03T22:11:31.472Z,7.35
2023-05-03T22:14:07.359Z,7.53
2023-05-03T22:16:36.118Z,7.65
2023-05-03T22:19:03.086Z,7.57
2023-05-03T22:21:29.848Z,7.55
2023-05-03T22:23:56.665Z,8.00
2023-05-03T22:26:24.369Z,7.32
2023-05-03T22:28:51.201Z,7.97
2023-05-03T22:31:18.244Z,7.68
2023-05-03T22:33:45.475Z,8.15
2023-05-03T22:36:12.976Z,8.20
2023-05-03T22:38:42.571Z,8.25
2023-05-03T22:41:09.870Z,8.38
2023-05-03T22:43:37.012Z,7.78
2023-05-03T22:46:04.109Z,7.90
2023-05-03T22:48:32.644Z,8.70
2023-05-03T22:50:59.933Z,7.80
2023-05-03T22:53:26.885Z,7.97
2023-05-03T22:56:01.592Z,8.05
2023-05-03T22:58:28.900Z,8.32
2023-05-03T23:00:56.517Z,8.20
2023-05-03T23:03:23.675Z,8.48
2023-05-03T23:05:52.948Z,8.15
2023-05-03T23:08:20.222Z,7.57
2023-05-03T23:10:47.285Z,8.32
2023-05-03T23:13:14.114Z,8.38
2023-05-03T23:15:40.996Z,8.88
2023-05-03T23:18:08.496Z,8.00
2023-05-03T23:20:35.497Z,8.20
2023-05-03T23:23:02.350Z,8.30
2023-05-03T23:25:29.122Z,8.43
2023-05-03T23:27:56.008Z,8.73
2023-05-03T23:30:23.327Z,8.10
2023-05-03T23:32:50.702Z,8.48
2023-05-03T23:35:18.007Z,8.70
2023-05-03T23:37:44.763Z,9.15
2023-05-03T23:40:12.993Z,8.55
2023-05-03T23:42:41.292Z,9.15
2023-05-03T23:45:09.847Z,8.50
2023-05-03T23:47:37.037Z,8.85
2023-05-03T23:50:04.757Z,9.25
2023-05-03T23:52:31.804Z,8.32
2023-05-03T23:54:58.637Z,8.80
2023-05-03T23:57:25.373Z,9.85
2023-05-03T23:59:52.286Z,9.43
